sensor_id;sensor_type;location;lat;lon;timestamp;P1;durP1;ratioP1;P2;durP2;ratioP2
44165;SDS011;30476;53.468;9.826;2023-04-15T00:01:19;4.33;;;3.93;;
44165;SDS011;30476;53.468;9.826;2023-04-15T00:03:45;6.50;;;5.67;;
44165;SDS011;30476;53.468;9.826;2023-04-15T00:06:11;5.13;;;4.60;;
44165;SDS011;30476;53.468;9.826;2023-04-15T00:08:38;4.00;;;3.70;;
44165;SDS011;30476;53.468;9.826;2023-04-15T00:11:03;4.70;;;3.90;;
44165;SDS011;30476;53.468;9.826;2023-04-15T00:13:30;4.00;;;3.60;;
44165;SDS011;30476;53.468;9.826;2023-04-15T00:16:00;3.37;;;3.17;;
44165;SDS011;30476;53.468;9.826;2023-04-15T00:18:26;2.70;;;2.50;;
44165;SDS011;30476;53.468;9.826;2023-04-15T00:20:53;3.40;;;3.20;;
44165;SDS011;30476;53.468;9.826;2023-04-15T00:23:19;2.80;;;2.60;;
44165;SDS011;30476;53.468;9.826;2023-04-15T00:25:45;2.67;;;2.47;;
44165;SDS011;30476;53.468;9.826;2023-04-15T00:28:11;3.50;;;3.20;;
44165;SDS011;30476;53.468;9.826;2023-04-15T00:30:37;3.17;;;2.83;;
44165;SDS011;30476;53.468;9.826;2023-04-15T00:33:03;3.50;;;3.20;;
44165;SDS011;30476;53.468;9.826;2023-04-15T00:35:29;3.50;;;3.03;;
44165;SDS011;30476;53.468;9.826;2023-04-15T00:37:58;4.43;;;3.40;;
44165;SDS011;30476;53.468;9.826;2023-04-15T00:40:24;3.10;;;2.80;;
44165;SDS011;30476;53.468;9.826;2023-04-15T00:42:50;3.30;;;2.30;;
44165;SDS011;30476;53.468;9.826;2023-04-15T00:45:16;3.70;;;3.40;;
44165;SDS011;30476;53.468;9.826;2023-04-15T00:47:43;3.47;;;3.17;;
44165;SDS011;30476;53.468;9.826;2023-04-15T00:50:09;4.50;;;3.73;;
44165;SDS011;30476;53.468;9.826;2023-04-15T00:52:36;3.57;;;3.00;;
44165;SDS011;30476;53.468;9.826;2023-04-15T00:55:03;4.13;;;3.73;;
44165;SDS011;30476;53.468;9.826;2023-04-15T00:57:30;3.63;;;3.43;;
44165;SDS011;30476;53.468;9.826;2023-04-15T00:59:56;4.33;;;3.93;;
44165;SDS011;30476;53.468;9.826;2023-04-15T01:02:22;3.60;;;3.30;;
44165;SDS011;30476;53.468;9.826;2023-04-15T01:04:49;3.93;;;3.63;;
44165;SDS011;30476;53.468;9.826;2023-04-15T01:07:15;4.10;;;3.70;;
44165;SDS011;30476;53.468;9.826;2023-04-15T01:09:41;3.70;;;3.40;;
44165;SDS011;30476;53.468;9.826;2023-04-15T01:12:45;3.97;;;3.67;;
44165;SDS011;30476;53.468;9.826;2023-04-15T01:15:11;4.13;;;3.53;;
44165;SDS011;30476;53.468;9.826;2023-04-15T01:17:37;3.90;;;3.60;;
44165;SDS011;30476;53.468;9.826;2023-04-15T01:20:04;4.23;;;3.90;;
44165;SDS011;30476;53.468;9.826;2023-04-15T01:22:30;4.10;;;3.70;;
44165;SDS011;30476;53.468;9.826;2023-04-15T01:25:09;4.00;;;3.70;;
44165;SDS011;30476;53.468;9.826;2023-04-15T01:27:40;4.37;;;3.97;;
44165;SDS011;30476;53.468;9.826;2023-04-15T01:30:07;3.73;;;3.43;;
44165;SDS011;30476;53.468;9.826;2023-04-15T01:32:33;7.83;;;4.40;;
44165;SDS011;30476;53.468;9.826;2023-04-15T01:34:59;3.83;;;3.60;;
44165;SDS011;30476;53.468;9.826;2023-04-15T01:37:25;4.27;;;3.87;;
44165;SDS011;30476;53.468;9.826;2023-04-15T01:39:51;4.63;;;4.23;;
44165;SDS011;30476;53.468;9.826;2023-04-15T01:42:17;4.67;;;3.87;;
44165;SDS011;30476;53.468;9.826;2023-04-15T01:44:43;6.60;;;5.30;;
44165;SDS011;30476;53.468;9.826;2023-04-15T01:47:08;5.37;;;4.87;;
44165;SDS011;30476;53.468;9.826;2023-04-15T01:49:34;6.03;;;5.43;;
44165;SDS011;30476;53.468;9.826;2023-04-15T01:52:00;5.13;;;4.70;;
44165;SDS011;30476;53.468;9.826;2023-04-15T01:54:26;7.53;;;5.50;;
44165;SDS011;30476;53.468;9.826;2023-04-15T01:56:52;7.50;;;5.80;;
44165;SDS011;30476;53.468;9.826;2023-04-15T01:59:17;6.40;;;5.40;;
44165;SDS011;30476;53.468;9.826;2023-04-15T02:01:43;7.97;;;6.67;;
44165;SDS011;30476;53.468;9.826;2023-04-15T02:04:12;8.10;;;6.73;;
44165;SDS011;30476;53.468;9.826;2023-04-15T02:06:43;6.57;;;5.83;;
44165;SDS011;30476;53.468;9.826;2023-04-15T02:09:10;7.67;;;6.63;;
44165;SDS011;30476;53.468;9.826;2023-04-15T02:11:36;6.90;;;6.30;;
44165;SDS011;30476;53.468;9.826;2023-04-15T02:14:02;6.37;;;5.77;;
44165;SDS011;30476;53.468;9.826;2023-04-15T02:16:31;6.07;;;5.47;;
44165;SDS011;30476;53.468;9.826;2023-04-15T02:18:58;7.73;;;5.90;;
44165;SDS011;30476;53.468;9.826;2023-04-15T02:21:27;6.27;;;5.77;;
44165;SDS011;30476;53.468;9.826;2023-04-15T02:23:53;5.87;;;5.33;;
44165;SDS011;30476;53.468;9.826;2023-04-15T02:26:20;6.87;;;6.27;;
44165;SDS011;30476;53.468;9.826;2023-04-15T02:28:46;5.77;;;5.27;;
44165;SDS011;30476;53.468;9.826;2023-04-15T02:31:13;6.90;;;5.60;;
44165;SDS011;30476;53.468;9.826;2023-04-15T02:33:39;6.60;;;5.87;;
44165;SDS011;30476;53.468;9.826;2023-04-15T02:36:04;6.73;;;6.13;;
44165;SDS011;30476;53.468;9.826;2023-04-15T02:38:32;6.67;;;5.93;;
44165;SDS011;30476;53.468;9.826;2023-04-15T02:40:57;7.00;;;6.30;;
44165;SDS011;30476;53.468;9.826;2023-04-15T02:43:23;6.20;;;5.63;;
44165;SDS011;30476;53.468;9.826;2023-04-15T02:45:49;6.63;;;5.47;;
44165;SDS011;30476;53.468;9.826;2023-04-15T02:48:15;6.40;;;5.20;;
44165;SDS011;30476;53.468;9.826;2023-04-15T02:50:44;6.53;;;5.93;;
44165;SDS011;30476;53.468;9.826;2023-04-15T02:53:10;6.60;;;5.80;;
44165;SDS011;30476;53.468;9.826;2023-04-15T02:55:37;5.57;;;5.07;;
44165;SDS011;30476;53.468;9.826;2023-04-15T02:58:03;6.10;;;5.00;;
44165;SDS011;30476;53.468;9.826;2023-04-15T03:00:29;5.13;;;4.63;;
44165;SDS011;30476;53.468;9.826;2023-04-15T03:02:59;6.00;;;5.17;;
44165;SDS011;30476;53.468;9.826;2023-04-15T03:05:26;5.17;;;4.70;;
44165;SDS011;30476;53.468;9.826;2023-04-15T03:07:52;6.07;;;5.50;;
44165;SDS011;30476;53.468;9.826;2023-04-15T03:10:18;6.43;;;5.80;;
44165;SDS011;30476;53.468;9.826;2023-04-15T03:12:44;6.10;;;5.50;;
44165;SDS011;30476;53.468;9.826;2023-04-15T03:15:10;6.03;;;5.43;;
44165;SDS011;30476;53.468;9.826;2023-04-15T03:17:36;8.00;;;4.93;;
44165;SDS011;30476;53.468;9.826;2023-04-15T03:20:02;7.67;;;6.27;;
44165;SDS011;30476;53.468;9.826;2023-04-15T03:22:32;5.80;;;5.20;;
44165;SDS011;30476;53.468;9.826;2023-04-15T03:24:58;7.63;;;5.70;;
44165;SDS011;30476;53.468;9.826;2023-04-15T03:27:24;6.20;;;5.13;;
44165;SDS011;30476;53.468;9.826;2023-04-15T03:29:50;5.73;;;5.23;;
44165;SDS011;30476;53.468;9.826;2023-04-15T03:32:16;7.93;;;5.07;;
44165;SDS011;30476;53.468;9.826;2023-04-15T03:34:42;6.03;;;5.43;;
44165;SDS011;30476;53.468;9.826;2023-04-15T03:37:08;5.43;;;4.90;;
44165;SDS011;30476;53.468;9.826;2023-04-15T03:39:34;6.37;;;5.67;;
44165;SDS011;30476;53.468;9.826;2023-04-15T03:42:00;5.77;;;4.80;;
44165;SDS011;30476;53.468;9.826;2023-04-15T03:44:26;6.50;;;5.80;;
44165;SDS011;30476;53.468;9.826;2023-04-15T03:46:52;6.57;;;5.87;;
44165;SDS011;30476;53.468;9.826;2023-04-15T03:49:18;5.60;;;5.10;;
44165;SDS011;30476;53.468;9.826;2023-04-15T03:51:44;7.30;;;6.40;;
44165;SDS011;30476;53.468;9.826;2023-04-15T03:54:10;7.57;;;6.60;;
44165;SDS011;30476;53.468;9.826;2023-04-15T03:56:37;6.30;;;5.70;;
44165;SDS011;30476;53.468;9.826;2023-04-15T03:59:02;7.33;;;6.63;;
44165;SDS011;30476;53.468;9.826;2023-04-15T04:01:28;8.47;;;6.93;;
44165;SDS011;30476;53.468;9.826;2023-04-15T04:03:54;7.83;;;6.80;;
44165;SDS011;30476;53.468;9.826;2023-04-15T04:06:20;8.13;;;7.33;;
44165;SDS011;30476;53.468;9.826;2023-04-15T04:08:46;10.43;;;8.30;;
44165;SDS011;30476;53.468;9.826;2023-04-15T04:11:11;8.00;;;7.20;;
44165;SDS011;30476;53.468;9.826;2023-04-15T04:13:37;8.60;;;7.13;;
44165;SDS011;30476;53.468;9.826;2023-04-15T04:16:03;8.37;;;7.00;;
44165;SDS011;30476;53.468;9.826;2023-04-15T04:18:30;9.40;;;7.00;;
44165;SDS011;30476;53.468;9.826;2023-04-15T04:20:56;11.73;;;8.57;;
44165;SDS011;30476;53.468;9.826;2023-04-15T04:23:22;9.07;;;7.50;;
44165;SDS011;30476;53.468;9.826;2023-04-15T04:25:48;15.10;;;7.63;;
44165;SDS011;30476;53.468;9.826;2023-04-15T04:28:14;8.43;;;7.10;;
44165;SDS011;30476;53.468;9.826;2023-04-15T04:30:40;9.60;;;7.00;;
44165;SDS011;30476;53.468;9.826;2023-04-15T04:33:06;10.33;;;8.40;;
44165;SDS011;30476;53.468;9.826;2023-04-15T04:35:32;9.53;;;8.00;;
44165;SDS011;30476;53.468;9.826;2023-04-15T04:37:59;8.57;;;7.70;;
44165;SDS011;30476;53.468;9.826;2023-04-15T04:40:25;9.60;;;7.80;;
44165;SDS011;30476;53.468;9.826;2023-04-15T04:42:52;9.10;;;7.37;;
44165;SDS011;30476;53.468;9.826;2023-04-15T04:45:18;12.33;;;8.73;;
44165;SDS011;30476;53.468;9.826;2023-04-15T04:47:44;9.90;;;8.33;;
44165;SDS011;30476;53.468;9.826;2023-04-15T04:50:11;7.57;;;6.60;;
44165;SDS011;30476;53.468;9.826;2023-04-15T04:52:37;10.27;;;7.87;;
44165;SDS011;30476;53.468;9.826;2023-04-15T04:55:03;9.97;;;8.20;;
44165;SDS011;30476;53.468;9.826;2023-04-15T04:57:30;9.17;;;7.73;;
44165;SDS011;30476;53.468;9.826;2023-04-15T04:59:55;10.60;;;7.63;;
44165;SDS011;30476;53.468;9.826;2023-04-15T05:02:21;11.93;;;8.40;;
44165;SDS011;30476;53.468;9.826;2023-04-15T05:04:47;11.37;;;7.80;;
44165;SDS011;30476;53.468;9.826;2023-04-15T05:07:14;11.83;;;9.77;;
44165;SDS011;30476;53.468;9.826;2023-04-15T05:09:40;9.90;;;7.57;;
44165;SDS011;30476;53.468;9.826;2023-04-15T05:12:06;11.30;;;8.70;;
44165;SDS011;30476;53.468;9.826;2023-04-15T05:14:33;9.53;;;7.50;;
44165;SDS011;30476;53.468;9.826;2023-04-15T05:16:59;10.87;;;7.90;;
44165;SDS011;30476;53.468;9.826;2023-04-15T05:19:24;10.17;;;8.17;;
44165;SDS011;30476;53.468;9.826;2023-04-15T05:21:50;11.20;;;9.00;;
44165;SDS011;30476;53.468;9.826;2023-04-15T05:24:16;12.03;;;7.93;;
44165;SDS011;30476;53.468;9.826;2023-04-15T05:26:42;10.83;;;8.80;;
44165;SDS011;30476;53.468;9.826;2023-04-15T05:29:08;12.10;;;8.97;;
44165;SDS011;30476;53.468;9.826;2023-04-15T05:31:34;14.20;;;9.90;;
44165;SDS011;30476;53.468;9.826;2023-04-15T05:34:00;13.73;;;9.57;;
44165;SDS011;30476;53.468;9.826;2023-04-15T05:36:26;12.47;;;10.77;;
44165;SDS011;30476;53.468;9.826;2023-04-15T05:38:52;15.60;;;10.83;;
44165;SDS011;30476;53.468;9.826;2023-04-15T05:41:18;19.57;;;12.17;;
44165;SDS011;30476;53.468;9.826;2023-04-15T05:43:44;18.13;;;11.90;;
44165;SDS011;30476;53.468;9.826;2023-04-15T05:46:10;19.10;;;13.20;;
44165;SDS011;30476;53.468;9.826;2023-04-15T05:48:35;18.10;;;12.97;;
44165;SDS011;30476;53.468;9.826;2023-04-15T05:51:01;18.63;;;11.97;;
44165;SDS011;30476;53.468;9.826;2023-04-15T05:53:27;16.80;;;13.43;;
44165;SDS011;30476;53.468;9.826;2023-04-15T05:55:53;20.10;;;13.90;;
44165;SDS011;30476;53.468;9.826;2023-04-15T05:58:18;18.10;;;12.80;;
44165;SDS011;30476;53.468;9.826;2023-04-15T06:00:44;19.20;;;14.63;;
44165;SDS011;30476;53.468;9.826;2023-04-15T06:03:10;20.30;;;14.10;;
44165;SDS011;30476;53.468;9.826;2023-04-15T06:05:36;16.47;;;12.17;;
44165;SDS011;30476;53.468;9.826;2023-04-15T06:08:02;20.10;;;14.63;;
44165;SDS011;30476;53.468;9.826;2023-04-15T06:10:28;19.03;;;14.23;;
44165;SDS011;30476;53.468;9.826;2023-04-15T06:12:55;18.20;;;14.03;;
44165;SDS011;30476;53.468;9.826;2023-04-15T06:15:20;20.20;;;14.30;;
44165;SDS011;30476;53.468;9.826;2023-04-15T06:17:47;19.50;;;13.23;;
44165;SDS011;30476;53.468;9.826;2023-04-15T06:20:12;20.03;;;13.67;;
44165;SDS011;30476;53.468;9.826;2023-04-15T06:22:39;18.13;;;13.30;;
44165;SDS011;30476;53.468;9.826;2023-04-15T06:25:05;20.63;;;13.47;;
44165;SDS011;30476;53.468;9.826;2023-04-15T06:27:32;20.57;;;14.20;;
44165;SDS011;30476;53.468;9.826;2023-04-15T06:29:58;22.00;;;14.00;;
44165;SDS011;30476;53.468;9.826;2023-04-15T06:32:24;23.50;;;14.40;;
44165;SDS011;30476;53.468;9.826;2023-04-15T06:34:50;21.30;;;16.07;;
44165;SDS011;30476;53.468;9.826;2023-04-15T06:37:16;25.50;;;16.60;;
44165;SDS011;30476;53.468;9.826;2023-04-15T06:39:42;25.87;;;16.60;;
44165;SDS011;30476;53.468;9.826;2023-04-15T06:42:09;25.57;;;15.40;;
44165;SDS011;30476;53.468;9.826;2023-04-15T06:44:35;22.43;;;15.77;;
44165;SDS011;30476;53.468;9.826;2023-04-15T06:47:01;27.07;;;17.40;;
44165;SDS011;30476;53.468;9.826;2023-04-15T06:49:27;27.10;;;18.07;;
44165;SDS011;30476;53.468;9.826;2023-04-15T06:51:53;32.23;;;19.00;;
44165;SDS011;30476;53.468;9.826;2023-04-15T06:54:19;28.90;;;17.30;;
44165;SDS011;30476;53.468;9.826;2023-04-15T06:56:45;27.60;;;18.20;;
44165;SDS011;30476;53.468;9.826;2023-04-15T06:59:12;31.37;;;19.00;;
44165;SDS011;30476;53.468;9.826;2023-04-15T07:01:41;29.37;;;20.23;;
44165;SDS011;30476;53.468;9.826;2023-04-15T07:04:07;30.10;;;19.93;;
44165;SDS011;30476;53.468;9.826;2023-04-15T07:06:33;30.10;;;19.10;;
44165;SDS011;30476;53.468;9.826;2023-04-15T07:09:00;32.57;;;20.17;;
44165;SDS011;30476;53.468;9.826;2023-04-15T07:11:26;29.80;;;20.57;;
44165;SDS011;30476;53.468;9.826;2023-04-15T07:13:51;33.27;;;21.13;;
44165;SDS011;30476;53.468;9.826;2023-04-15T07:16:17;37.20;;;23.30;;
44165;SDS011;30476;53.468;9.826;2023-04-15T07:18:43;32.43;;;21.10;;
44165;SDS011;30476;53.468;9.826;2023-04-15T07:21:09;34.73;;;21.87;;
44165;SDS011;30476;53.468;9.826;2023-04-15T07:23:35;32.00;;;21.10;;
44165;SDS011;30476;53.468;9.826;2023-04-15T07:26:01;36.60;;;22.30;;
44165;SDS011;30476;53.468;9.826;2023-04-15T07:28:27;37.43;;;23.33;;
44165;SDS011;30476;53.468;9.826;2023-04-15T07:30:53;41.90;;;25.00;;
44165;SDS011;30476;53.468;9.826;2023-04-15T07:33:21;34.23;;;21.60;;
44165;SDS011;30476;53.468;9.826;2023-04-15T07:35:47;33.27;;;22.77;;
44165;SDS011;30476;53.468;9.826;2023-04-15T07:38:13;34.63;;;23.80;;
44165;SDS011;30476;53.468;9.826;2023-04-15T07:40:39;34.93;;;23.63;;
44165;SDS011;30476;53.468;9.826;2023-04-15T07:43:05;35.23;;;21.83;;
44165;SDS011;30476;53.468;9.826;2023-04-15T07:45:31;39.17;;;24.63;;
44165;SDS011;30476;53.468;9.826;2023-04-15T07:47:56;37.00;;;23.77;;
44165;SDS011;30476;53.468;9.826;2023-04-15T07:50:22;42.23;;;25.50;;
44165;SDS011;30476;53.468;9.826;2023-04-15T07:52:49;39.43;;;24.37;;
44165;SDS011;30476;53.468;9.826;2023-04-15T07:55:15;39.67;;;25.07;;
44165;SDS011;30476;53.468;9.826;2023-04-15T07:57:43;38.30;;;26.37;;
44165;SDS011;30476;53.468;9.826;2023-04-15T08:00:09;41.60;;;25.40;;
44165;SDS011;30476;53.468;9.826;2023-04-15T08:02:35;36.37;;;24.27;;
44165;SDS011;30476;53.468;9.826;2023-04-15T08:05:01;42.03;;;24.70;;
44165;SDS011;30476;53.468;9.826;2023-04-15T08:07:28;41.40;;;26.27;;
44165;SDS011;30476;53.468;9.826;2023-04-15T08:09:54;40.23;;;24.57;;
44165;SDS011;30476;53.468;9.826;2023-04-15T08:12:20;38.93;;;24.27;;
44165;SDS011;30476;53.468;9.826;2023-04-15T08:14:46;40.90;;;25.20;;
44165;SDS011;30476;53.468;9.826;2023-04-15T08:17:12;39.60;;;26.00;;
44165;SDS011;30476;53.468;9.826;2023-04-15T08:19:38;38.60;;;26.67;;
44165;SDS011;30476;53.468;9.826;2023-04-15T08:22:05;40.40;;;26.07;;
44165;SDS011;30476;53.468;9.826;2023-04-15T08:24:31;33.90;;;23.67;;
44165;SDS011;30476;53.468;9.826;2023-04-15T08:26:56;45.03;;;26.37;;
44165;SDS011;30476;53.468;9.826;2023-04-15T08:29:23;39.63;;;25.10;;
44165;SDS011;30476;53.468;9.826;2023-04-15T08:31:48;44.77;;;27.93;;
44165;SDS011;30476;53.468;9.826;2023-04-15T08:34:14;40.93;;;27.17;;
44165;SDS011;30476;53.468;9.826;2023-04-15T08:36:41;43.97;;;27.77;;
44165;SDS011;30476;53.468;9.826;2023-04-15T08:39:07;42.80;;;27.10;;
44165;SDS011;30476;53.468;9.826;2023-04-15T08:41:40;42.77;;;25.33;;
44165;SDS011;30476;53.468;9.826;2023-04-15T08:44:12;47.23;;;28.07;;
44165;SDS011;30476;53.468;9.826;2023-04-15T08:46:38;41.63;;;26.60;;
44165;SDS011;30476;53.468;9.826;2023-04-15T08:49:10;41.37;;;26.97;;
44165;SDS011;30476;53.468;9.826;2023-04-15T08:51:39;36.67;;;26.63;;
44165;SDS011;30476;53.468;9.826;2023-04-15T08:54:06;40.77;;;26.23;;
44165;SDS011;30476;53.468;9.826;2023-04-15T08:56:33;45.50;;;28.80;;
44165;SDS011;30476;53.468;9.826;2023-04-15T08:58:59;44.30;;;29.00;;
44165;SDS011;30476;53.468;9.826;2023-04-15T09:01:25;41.20;;;26.63;;
44165;SDS011;30476;53.468;9.826;2023-04-15T09:03:51;46.50;;;27.83;;
44165;SDS011;30476;53.468;9.826;2023-04-15T09:06:21;40.30;;;28.30;;
44165;SDS011;30476;53.468;9.826;2023-04-15T09:08:48;47.60;;;29.93;;
44165;SDS011;30476;53.468;9.826;2023-04-15T09:11:16;41.53;;;29.17;;
44165;SDS011;30476;53.468;9.826;2023-04-15T09:13:42;42.47;;;29.07;;
44165;SDS011;30476;53.468;9.826;2023-04-15T09:16:08;40.67;;;28.33;;
44165;SDS011;30476;53.468;9.826;2023-04-15T09:18:35;45.03;;;28.00;;
44165;SDS011;30476;53.468;9.826;2023-04-15T09:23:36;43.40;;;28.27;;
44165;SDS011;30476;53.468;9.826;2023-04-15T09:26:02;49.60;;;29.90;;
44165;SDS011;30476;53.468;9.826;2023-04-15T09:28:30;47.20;;;29.03;;
44165;SDS011;30476;53.468;9.826;2023-04-15T09:30:59;46.50;;;29.03;;
44165;SDS011;30476;53.468;9.826;2023-04-15T09:33:26;43.67;;;30.50;;
44165;SDS011;30476;53.468;9.826;2023-04-15T09:36:00;49.10;;;30.50;;
44165;SDS011;30476;53.468;9.826;2023-04-15T09:38:28;47.47;;;30.30;;
44165;SDS011;30476;53.468;9.826;2023-04-15T09:40:55;45.97;;;29.57;;
44165;SDS011;30476;53.468;9.826;2023-04-15T09:43:22;49.70;;;30.00;;
44165;SDS011;30476;53.468;9.826;2023-04-15T09:46:01;45.30;;;28.93;;
44165;SDS011;30476;53.468;9.826;2023-04-15T09:48:27;43.70;;;28.40;;
44165;SDS011;30476;53.468;9.826;2023-04-15T09:50:53;43.33;;;29.23;;
44165;SDS011;30476;53.468;9.826;2023-04-15T09:53:23;43.90;;;29.50;;
44165;SDS011;30476;53.468;9.826;2023-04-15T09:55:50;43.80;;;29.27;;
44165;SDS011;30476;53.468;9.826;2023-04-15T09:58:22;42.00;;;27.70;;
44165;SDS011;30476;53.468;9.826;2023-04-15T10:00:52;46.97;;;29.30;;
44165;SDS011;30476;53.468;9.826;2023-04-15T10:03:27;41.20;;;29.73;;
44165;SDS011;30476;53.468;9.826;2023-04-15T10:05:57;40.20;;;27.53;;
44165;SDS011;30476;53.468;9.826;2023-04-15T10:08:25;42.57;;;27.97;;
44165;SDS011;30476;53.468;9.826;2023-04-15T10:10:53;43.63;;;28.47;;
44165;SDS011;30476;53.468;9.826;2023-04-15T10:13:20;39.73;;;27.93;;
44165;SDS011;30476;53.468;9.826;2023-04-15T10:15:57;41.80;;;28.17;;
44165;SDS011;30476;53.468;9.826;2023-04-15T10:18:43;50.13;;;27.80;;
44165;SDS011;30476;53.468;9.826;2023-04-15T10:21:10;41.73;;;28.17;;
44165;SDS011;30476;53.468;9.826;2023-04-15T10:23:38;38.67;;;25.40;;
44165;SDS011;30476;53.468;9.826;2023-04-15T10:26:04;38.03;;;26.63;;
44165;SDS011;30476;53.468;9.826;2023-04-15T10:28:30;42.47;;;28.30;;
44165;SDS011;30476;53.468;9.826;2023-04-15T10:30:56;42.87;;;27.57;;
44165;SDS011;30476;53.468;9.826;2023-04-15T10:33:24;41.13;;;27.07;;
44165;SDS011;30476;53.468;9.826;2023-04-15T10:35:52;42.50;;;27.77;;
44165;SDS011;30476;53.468;9.826;2023-04-15T10:38:36;38.27;;;26.03;;
44165;SDS011;30476;53.468;9.826;2023-04-15T10:44:03;36.93;;;27.50;;
44165;SDS011;30476;53.468;9.826;2023-04-15T10:49:12;41.83;;;27.77;;
44165;SDS011;30476;53.468;9.826;2023-04-15T10:51:45;41.40;;;28.63;;
44165;SDS011;30476;53.468;9.826;2023-04-15T10:54:16;36.43;;;27.17;;
44165;SDS011;30476;53.468;9.826;2023-04-15T10:56:52;39.27;;;28.43;;
44165;SDS011;30476;53.468;9.826;2023-04-15T10:59:31;39.20;;;26.33;;
44165;SDS011;30476;53.468;9.826;2023-04-15T11:02:01;36.10;;;25.93;;
44165;SDS011;30476;53.468;9.826;2023-04-15T11:12:38;36.00;;;25.70;;
44165;SDS011;30476;53.468;9.826;2023-04-15T11:18:15;38.03;;;25.53;;
44165;SDS011;30476;53.468;9.826;2023-04-15T11:20:46;36.17;;;26.23;;
44165;SDS011;30476;53.468;9.826;2023-04-15T11:23:26;42.53;;;29.27;;
44165;SDS011;30476;53.468;9.826;2023-04-15T11:26:04;35.87;;;25.27;;
44165;SDS011;30476;53.468;9.826;2023-04-15T11:28:34;33.90;;;25.20;;
44165;SDS011;30476;53.468;9.826;2023-04-15T11:31:10;33.97;;;26.40;;
44165;SDS011;30476;53.468;9.826;2023-04-15T11:33:43;33.23;;;23.80;;
44165;SDS011;30476;53.468;9.826;2023-04-15T11:36:10;29.83;;;22.63;;
44165;SDS011;30476;53.468;9.826;2023-04-15T11:38:36;33.00;;;23.47;;
44165;SDS011;30476;53.468;9.826;2023-04-15T11:41:02;30.93;;;23.70;;
44165;SDS011;30476;53.468;9.826;2023-04-15T11:43:28;31.17;;;23.97;;
44165;SDS011;30476;53.468;9.826;2023-04-15T11:45:57;30.37;;;22.63;;
44165;SDS011;30476;53.468;9.826;2023-04-15T11:48:25;31.07;;;22.07;;
44165;SDS011;30476;53.468;9.826;2023-04-15T11:50:53;30.17;;;22.10;;
44165;SDS011;30476;53.468;9.826;2023-04-15T11:53:23;28.53;;;23.00;;
44165;SDS011;30476;53.468;9.826;2023-04-15T11:56:03;29.67;;;22.23;;
44165;SDS011;30476;53.468;9.826;2023-04-15T11:58:29;33.30;;;24.67;;
44165;SDS011;30476;53.468;9.826;2023-04-15T12:00:56;30.93;;;23.17;;
44165;SDS011;30476;53.468;9.826;2023-04-15T12:03:29;30.60;;;24.57;;
44165;SDS011;30476;53.468;9.826;2023-04-15T12:08:55;22.67;;;18.07;;
44165;SDS011;30476;53.468;9.826;2023-04-15T12:13:55;18.43;;;16.30;;
44165;SDS011;30476;53.468;9.826;2023-04-15T12:16:22;18.70;;;16.80;;
44165;SDS011;30476;53.468;9.826;2023-04-15T12:18:52;17.07;;;15.27;;
44165;SDS011;30476;53.468;9.826;2023-04-15T12:21:22;17.47;;;15.57;;
44165;SDS011;30476;53.468;9.826;2023-04-15T12:23:50;16.83;;;15.23;;
44165;SDS011;30476;53.468;9.826;2023-04-15T12:26:42;16.07;;;14.53;;
44165;SDS011;30476;53.468;9.826;2023-04-15T12:29:06;15.67;;;14.17;;
44165;SDS011;30476;53.468;9.826;2023-04-15T12:31:33;16.27;;;13.50;;
44165;SDS011;30476;53.468;9.826;2023-04-15T12:34:00;15.93;;;13.03;;
44165;SDS011;30476;53.468;9.826;2023-04-15T12:36:27;15.10;;;13.70;;
44165;SDS011;30476;53.468;9.826;2023-04-15T12:38:56;14.77;;;13.27;;
44165;SDS011;30476;53.468;9.826;2023-04-15T12:41:21;13.50;;;12.20;;
44165;SDS011;30476;53.468;9.826;2023-04-15T12:43:48;16.30;;;14.70;;
44165;SDS011;30476;53.468;9.826;2023-04-15T12:46:14;14.83;;;13.27;;
44165;SDS011;30476;53.468;9.826;2023-04-15T12:48:41;15.30;;;13.77;;
44165;SDS011;30476;53.468;9.826;2023-04-15T12:51:06;14.93;;;12.13;;
44165;SDS011;30476;53.468;9.826;2023-04-15T12:53:32;14.20;;;12.70;;
44165;SDS011;30476;53.468;9.826;2023-04-15T12:55:58;13.73;;;12.53;;
44165;SDS011;30476;53.468;9.826;2023-04-15T12:58:24;12.57;;;11.33;;
44165;SDS011;30476;53.468;9.826;2023-04-15T13:00:50;13.17;;;11.90;;
44165;SDS011;30476;53.468;9.826;2023-04-15T13:03:15;14.43;;;13.00;;
44165;SDS011;30476;53.468;9.826;2023-04-15T13:05:41;12.53;;;11.37;;
44165;SDS011;30476;53.468;9.826;2023-04-15T13:08:07;14.07;;;12.67;;
44165;SDS011;30476;53.468;9.826;2023-04-15T13:10:34;12.80;;;11.60;;
44165;SDS011;30476;53.468;9.826;2023-04-15T13:13:03;12.70;;;11.47;;
44165;SDS011;30476;53.468;9.826;2023-04-15T13:15:30;12.03;;;10.93;;
44165;SDS011;30476;53.468;9.826;2023-04-15T13:17:55;11.20;;;10.20;;
44165;SDS011;30476;53.468;9.826;2023-04-15T13:20:21;11.67;;;10.67;;
44165;SDS011;30476;53.468;9.826;2023-04-15T13:22:47;12.43;;;11.13;;
44165;SDS011;30476;53.468;9.826;2023-04-15T13:25:13;11.60;;;10.63;;
44165;SDS011;30476;53.468;9.826;2023-04-15T13:27:39;12.70;;;11.50;;
44165;SDS011;30476;53.468;9.826;2023-04-15T13:30:05;12.03;;;10.50;;
44165;SDS011;30476;53.468;9.826;2023-04-15T13:32:31;12.90;;;11.10;;
44165;SDS011;30476;53.468;9.826;2023-04-15T13:34:57;12.00;;;10.90;;
44165;SDS011;30476;53.468;9.826;2023-04-15T13:37:27;12.77;;;11.57;;
44165;SDS011;30476;53.468;9.826;2023-04-15T13:39:53;13.50;;;12.30;;
44165;SDS011;30476;53.468;9.826;2023-04-15T13:42:20;13.67;;;12.37;;
44165;SDS011;30476;53.468;9.826;2023-04-15T13:44:46;12.37;;;11.30;;
44165;SDS011;30476;53.468;9.826;2023-04-15T13:47:12;12.53;;;11.37;;
44165;SDS011;30476;53.468;9.826;2023-04-15T13:49:40;13.10;;;11.90;;
44165;SDS011;30476;53.468;9.826;2023-04-15T13:52:06;12.63;;;11.43;;
44165;SDS011;30476;53.468;9.826;2023-04-15T13:54:31;10.87;;;10.00;;
44165;SDS011;30476;53.468;9.826;2023-04-15T13:56:57;14.10;;;11.50;;
44165;SDS011;30476;53.468;9.826;2023-04-15T13:59:23;11.53;;;10.43;;
44165;SDS011;30476;53.468;9.826;2023-04-15T14:01:49;12.00;;;10.90;;
44165;SDS011;30476;53.468;9.826;2023-04-15T14:04:14;11.17;;;9.97;;
44165;SDS011;30476;53.468;9.826;2023-04-15T14:06:40;11.63;;;10.43;;
44165;SDS011;30476;53.468;9.826;2023-04-15T14:09:06;11.37;;;10.27;;
44165;SDS011;30476;53.468;9.826;2023-04-15T14:11:31;11.13;;;10.07;;
44165;SDS011;30476;53.468;9.826;2023-04-15T14:13:59;10.10;;;9.10;;
44165;SDS011;30476;53.468;9.826;2023-04-15T14:16:25;11.17;;;9.17;;
44165;SDS011;30476;53.468;9.826;2023-04-15T14:18:51;11.17;;;10.00;;
44165;SDS011;30476;53.468;9.826;2023-04-15T14:21:17;12.30;;;11.03;;
44165;SDS011;30476;53.468;9.826;2023-04-15T14:23:43;10.23;;;9.53;;
44165;SDS011;30476;53.468;9.826;2023-04-15T14:26:09;11.23;;;10.33;;
44165;SDS011;30476;53.468;9.826;2023-04-15T14:28:34;11.17;;;10.03;;
44165;SDS011;30476;53.468;9.826;2023-04-15T14:31:02;12.17;;;11.07;;
44165;SDS011;30476;53.468;9.826;2023-04-15T14:33:28;10.33;;;9.33;;
44165;SDS011;30476;53.468;9.826;2023-04-15T14:35:53;11.27;;;10.00;;
44165;SDS011;30476;53.468;9.826;2023-04-15T14:38:20;9.50;;;8.70;;
44165;SDS011;30476;53.468;9.826;2023-04-15T14:40:46;9.47;;;8.50;;
44165;SDS011;30476;53.468;9.826;2023-04-15T14:43:12;9.17;;;8.37;;
44165;SDS011;30476;53.468;9.826;2023-04-15T14:45:38;9.37;;;8.53;;
44165;SDS011;30476;53.468;9.826;2023-04-15T14:48:04;9.97;;;9.10;;
44165;SDS011;30476;53.468;9.826;2023-04-15T14:50:37;9.23;;;8.30;;
44165;SDS011;30476;53.468;9.826;2023-04-15T14:53:03;9.23;;;8.40;;
44165;SDS011;30476;53.468;9.826;2023-04-15T14:55:28;10.07;;;9.17;;